Time;durP1;ratioP1;P1;durP2;ratioP2;P2;SDS_P1;SDS_P2;PMS_P1;PMS_P2;Temp;Humidity;BMP_temperature;BMP_pressure;BME280_temperature;BME280_humidity;BME280_pressure;Samples;Min_cycle;Max_cycle;Signal;HPM_P1;HPM_P2
2022/12/27 00:00:22;;;;;;;4.63;1.42;;;2.90;99.90;;;;;;5028896;28;20037;-68
2022/12/27 00:02:48;;;;;;;4.72;1.70;;;2.90;99.90;;;;;;5028076;28;20064;-68
2022/12/27 00:05:14;;;;;;;7.03;3.28;;;3.00;99.90;;;;;;5029088;28;20445;-68
2022/12/27 00:07:42;;;;;;;4.68;1.58;;;3.10;99.90;;;;;;5027745;28;20098;-68
2022/12/27 00:10:09;;;;;;;4.82;1.98;;;2.90;99.90;;;;;;5019792;28;20080;-67
2022/12/27 00:12:35;;;;;;;3.80;1.63;;;2.90;99.90;;;;;;5008141;28;20051;-67
2022/12/27 00:15:01;;;;;;;12.20;1.75;;;3.00;99.90;;;;;;5008557;28;20121;-68
2022/12/27 00:17:27;;;;;;;8.32;1.95;;;3.00;99.90;;;;;;5008534;28;20045;-68
2022/12/27 00:19:53;;;;;;;6.20;1.70;;;3.10;99.90;;;;;;5008668;28;20677;-68
2022/12/27 00:22:18;;;;;;;7.50;2.05;;;3.00;99.90;;;;;;5008256;28;20482;-68
2022/12/27 00:24:44;;;;;;;6.15;1.70;;;3.00;99.90;;;;;;5007907;28;20082;-68
2022/12/27 00:27:10;;;;;;;2.75;1.73;;;3.10;99.90;;;;;;4991060;28;20166;-67
2022/12/27 00:29:35;;;;;;;6.47;1.90;;;3.10;99.90;;;;;;5008639;28;20056;-68
2022/12/27 00:32:01;;;;;;;3.78;1.38;;;3.10;99.90;;;;;;5013233;28;20124;-68
2022/12/27 00:34:27;;;;;;;8.25;2.55;;;3.10;99.90;;;;;;5022934;28;20046;-68
2022/12/27 00:36:52;;;;;;;4.03;1.90;;;3.10;99.90;;;;;;5027191;28;20049;-68
2022/12/27 00:39:18;;;;;;;8.10;2.08;;;3.20;99.90;;;;;;5017891;28;20045;-69
2022/12/27 00:41:44;;;;;;;5.63;2.35;;;3.10;99.90;;;;;;5007547;28;20046;-67
2022/12/27 00:44:10;;;;;;;5.07;1.70;;;3.20;99.90;;;;;;5008788;28;20041;-68
2022/12/27 00:46:35;;;;;;;11.73;1.83;;;3.10;99.90;;;;;;5009156;28;20822;-69
2022/12/27 00:49:01;;;;;;;7.28;2.20;;;3.10;99.90;;;;;;5024853;28;20065;-68
2022/12/27 00:51:27;;;;;;;7.38;2.17;;;3.00;99.90;;;;;;5027249;28;20042;-68
2022/12/27 00:53:53;;;;;;;3.30;1.75;;;3.00;99.90;;;;;;5026739;28;20046;-68
2022/12/27 00:56:27;;;;;;;7.40;2.22;;;2.90;99.90;;;;;;5026980;28;20057;-68
2022/12/27 00:58:59;;;;;;;6.93;2.33;;;2.90;99.90;;;;;;5008204;28;20049;-68
2022/12/27 01:01:27;;;;;;;5.07;1.90;;;2.80;99.90;;;;;;5013680;28;20037;-68
2022/12/27 01:03:53;;;;;;;8.48;2.17;;;2.80;99.90;;;;;;5027584;28;20048;-68
2022/12/27 01:06:24;;;;;;;7.47;1.95;;;3.20;99.90;;;;;;5027515;28;20446;-68
2022/12/27 01:08:50;;;;;;;10.85;1.95;;;2.80;99.90;;;;;;5024698;28;20055;-68
2022/12/27 01:11:17;;;;;;;10.63;2.10;;;3.30;99.90;;;;;;5026388;28;20470;-67
2022/12/27 01:13:43;;;;;;;7.28;2.10;;;2.80;99.90;;;;;;5027380;28;20045;-68
2022/12/27 01:16:12;;;;;;;9.77;2.25;;;2.80;99.90;;;;;;5017270;28;20068;-68
2022/12/27 01:18:38;;;;;;;9.45;2.53;;;2.70;99.90;;;;;;5008216;28;20100;-67
2022/12/27 01:21:08;;;;;;;9.20;2.35;;;2.80;99.90;;;;;;5007297;28;20711;-68
2022/12/27 01:23:35;;;;;;;8.27;2.35;;;2.80;99.90;;;;;;5007876;28;20041;-67
2022/12/27 01:26:02;;;;;;;10.77;2.03;;;2.80;99.90;;;;;;5027115;28;20102;-68
2022/12/27 01:28:28;;;;;;;9.02;2.38;;;2.80;99.90;;;;;;5027246;28;20083;-68
2022/12/27 01:30:53;;;;;;;7.93;2.28;;;2.80;99.90;;;;;;5026913;28;20613;-68
2022/12/27 01:33:19;;;;;;;7.68;2.35;;;3.30;99.90;;;;;;5027101;28;20144;-68
2022/12/27 01:35:45;;;;;;;6.35;1.98;;;2.80;99.90;;;;;;5027014;28;20118;-68
2022/12/27 01:38:10;;;;;;;12.20;2.88;;;2.80;99.90;;;;;;5024812;28;20045;-69
2022/12/27 01:40:36;;;;;;;7.25;2.53;;;2.80;99.90;;;;;;5020301;28;20102;-68
2022/12/27 01:43:02;;;;;;;4.68;1.90;;;2.80;99.90;;;;;;5017656;28;20049;-68
2022/12/27 01:45:32;;;;;;;4.32;1.83;;;2.80;99.90;;;;;;5007422;28;20157;-68
2022/12/27 01:48:01;;;;;;;10.10;2.20;;;2.80;99.90;;;;;;5016041;28;20786;-69
2022/12/27 01:50:32;;;;;;;7.47;2.17;;;3.70;99.90;;;;;;5027716;28;20470;-68
2022/12/27 01:53:12;;;;;;;9.40;2.25;;;2.70;99.90;;;;;;5026444;28;20049;-68
2022/12/27 01:55:44;;;;;;;10.45;2.55;;;2.70;99.90;;;;;;5027497;28;20068;-67
2022/12/27 01:58:12;;;;;;;6.95;2.03;;;2.70;99.90;;;;;;5026894;28;20164;-68
2022/12/27 02:00:42;;;;;;;7.82;2.17;;;2.70;99.90;;;;;;5023393;28;20080;-67
2022/12/27 02:03:10;;;;;;;6.65;2.13;;;2.70;99.90;;;;;;5005442;28;20042;-68
2022/12/27 02:05:40;;;;;;;10.13;2.33;;;2.70;99.90;;;;;;5007451;28;20081;-67
2022/12/27 02:08:21;;;;;;;5.15;2.13;;;2.70;99.90;;;;;;5007158;28;20554;-68
2022/12/27 02:10:48;;;;;;;9.50;3.33;;;2.70;99.90;;;;;;5026825;28;20123;-70
2022/12/27 02:13:15;;;;;;;22.30;2.95;;;2.70;99.90;;;;;;5026809;28;20092;-68
2022/12/27 02:15:43;;;;;;;7.35;2.80;;;2.70;99.90;;;;;;5026594;28;20048;-68
2022/12/27 02:18:09;;;;;;;9.45;2.85;;;2.70;99.90;;;;;;5006377;28;20120;-68
2022/12/27 02:21:00;;;;;;;11.40;3.33;;;3.30;99.90;;;;;;5007488;28;20567;-68
2022/12/27 02:24:05;;;;;;;11.40;3.65;;;2.80;99.90;;;;;;5017399;28;20054;-68
2022/12/27 02:26:40;;;;;;;7.93;3.22;;;2.80;99.90;;;;;;5006443;28;20432;-68
2022/12/27 02:29:37;;;;;;;12.77;2.95;;;2.80;99.90;;;;;;5006960;28;20080;-67
2022/12/27 02:32:05;;;;;;;9.23;2.97;;;2.80;99.90;;;;;;5016922;28;20042;-68
2022/12/27 02:34:46;;;;;;;13.88;3.03;;;2.80;99.90;;;;;;5026699;28;20085;-68
2022/12/27 02:37:12;;;;;;;8.60;2.83;;;2.80;99.90;;;;;;5025791;28;20111;-68
2022/12/27 02:39:44;;;;;;;16.00;3.30;;;2.90;99.90;;;;;;5026935;28;20053;-68
2022/12/27 02:54:21;;;;;;;12.13;2.97;;;2.80;99.90;;;;;;5020791;28;20060;-67
2022/12/27 02:57:08;;;;;;;7.32;2.08;;;2.80;99.90;;;;;;5006084;28;20053;-68
2022/12/27 03:03:25;;;;;;;11.95;3.22;;;2.90;99.90;;;;;;5016632;28;20059;-68
2022/12/27 03:06:40;;;;;;;9.98;3.00;;;2.90;99.90;;;;;;5005934;28;20068;-70
2022/12/27 03:16:21;;;;;;;9.43;2.67;;;3.00;99.90;;;;;;5011446;28;20501;-68
2022/12/27 03:33:11;;;;;;;6.55;2.10;;;3.00;99.90;;;;;;5026610;28;20053;-68
2022/12/27 03:33:26;;;;;;;5.20;2.10;;;2.90;99.90;;;;;;5029244;28;20118;-69
2022/12/27 03:39:30;;;;;;;9.23;2.70;;;2.90;99.90;;;;;;5026014;28;20067;-68
2022/12/27 03:44:58;;;;;;;9.13;2.47;;;2.80;99.90;;;;;;5008881;28;20141;-68
2022/12/27 03:47:51;;;;;;;9.77;3.05;;;2.90;99.90;;;;;;5022788;28;20132;-67
2022/12/27 03:50:27;;;;;;;8.38;2.67;;;2.90;99.90;;;;;;5027783;28;20052;-68
2022/12/27 03:52:57;;;;;;;9.02;2.83;;;2.90;99.90;;;;;;5028691;28;20037;-68
2022/12/27 03:55:24;;;;;;;17.17;2.60;;;3.30;99.90;;;;;;5019998;28;20360;-68
2022/12/27 03:57:49;;;;;;;;;;;2.90;99.90;;;;;;5010695;28;20052;-68
2022/12/27 04:00:15;;;;;;;7.60;2.22;;;3.00;99.90;;;;;;5028116;28;19921;-68
2022/12/27 04:02:41;;;;;;;6.43;2.10;;;3.00;99.90;;;;;;5012194;28;20048;-68
2022/12/27 04:05:07;;;;;;;9.02;3.33;;;3.10;99.90;;;;;;5008805;28;20124;-68
2022/12/27 04:07:33;;;;;;;6.43;2.50;;;3.10;99.90;;;;;;5008640;28;20091;-68
2022/12/27 04:34:44;;;;;;;5.38;1.80;;;3.50;99.90;;;;;;5022063;28;20049;-68
2022/12/27 04:37:16;;;;;;;6.63;2.00;;;3.60;99.90;;;;;;5027414;28;20136;-68
2022/12/27 04:54:55;;;;;;;7.28;1.90;;;3.50;99.90;;;;;;5008604;28;20116;-69
2022/12/27 04:56:17;;;;;;;8.65;2.08;;;3.60;99.90;;;;;;4992950;28;20140;-67
2022/12/27 05:02:02;;;;;;;12.35;2.58;;;4.00;99.90;;;;;;4991457;28;20125;-68
2022/12/27 05:04:13;;;;;;;9.13;3.10;;;3.70;99.90;;;;;;5027927;28;20048;-68
2022/12/27 05:06:38;;;;;;;9.32;2.50;;;3.60;99.90;;;;;;5004546;28;20129;-67
2022/12/27 05:14:33;;;;;;;10.52;2.65;;;3.40;99.90;;;;;;5008459;28;20088;-68
2022/12/27 05:16:58;;;;;;;9.73;2.67;;;3.30;99.90;;;;;;5022160;28;20069;-68
2022/12/27 05:19:24;;;;;;;11.63;3.00;;;3.30;99.90;;;;;;5027052;28;20045;-68
2022/12/27 05:27:19;;;;;;;8.20;2.95;;;3.30;99.90;;;;;;5024846;28;20049;-69
2022/12/27 05:29:45;;;;;;;8.52;2.90;;;3.30;99.90;;;;;;5027675;28;20042;-68
2022/12/27 05:32:11;;;;;;;6.25;2.92;;;3.30;99.90;;;;;;5014471;28;20459;-68
2022/12/27 05:34:36;;;;;;;8.88;3.05;;;3.30;99.90;;;;;;5007950;28;20041;-68
2022/12/27 05:37:02;;;;;;;10.80;2.72;;;3.30;99.90;;;;;;5007400;28;20107;-68
2022/12/27 05:39:28;;;;;;;8.43;3.45;;;3.60;99.90;;;;;;5018262;28;20041;-68
2022/12/27 05:41:53;;;;;;;7.07;2.58;;;3.40;99.90;;;;;;5026575;28;20045;-68
2022/12/27 05:44:19;;;;;;;8.07;2.15;;;3.40;99.90;;;;;;5027173;28;20097;-68
2022/12/27 05:46:45;;;;;;;5.90;2.72;;;3.30;99.90;;;;;;5036765;28;20098;-67
2022/12/27 05:49:10;;;;;;;13.75;2.47;;;3.20;99.90;;;;;;5027112;28;20048;-69
2022/12/27 05:51:36;;;;;;;5.57;2.45;;;3.40;99.90;;;;;;5026056;28;20049;-69
2022/12/27 05:54:01;;;;;;;8.68;2.50;;;3.20;99.90;;;;;;5012847;28;20470;-67
2022/12/27 05:56:27;;;;;;;10.43;2.67;;;3.20;99.90;;;;;;5012902;28;20045;-67
2022/12/27 05:58:53;;;;;;;8.43;2.63;;;3.20;99.90;;;;;;5027618;28;20140;-68
2022/12/27 06:01:19;;;;;;;10.82;2.80;;;3.20;99.90;;;;;;5020580;28;20043;-68
2022/12/27 06:03:48;;;;;;;16.05;3.60;;;3.20;99.90;;;;;;5027187;28;20049;-68
2022/12/27 06:06:13;;;;;;;9.20;3.08;;;3.20;99.90;;;;;;5024431;28;20041;-68
2022/12/27 06:08:39;;;;;;;10.07;3.13;;;3.40;99.90;;;;;;5035528;28;20738;-68
2022/12/27 06:11:07;;;;;;;8.05;2.67;;;3.40;99.90;;;;;;5041221;28;20049;-68
2022/12/27 06:13:33;;;;;;;11.40;3.05;;;3.30;99.90;;;;;;5008925;28;20046;-67
2022/12/27 06:16:00;;;;;;;13.07;3.15;;;3.40;99.90;;;;;;5016136;28;20041;-68
2022/12/27 06:18:30;;;;;;;7.13;2.42;;;3.50;99.90;;;;;;5017890;28;20102;-67
2022/12/27 06:21:05;;;;;;;5.43;1.85;;;3.60;99.90;;;;;;5008980;28;20049;-68
2022/12/27 06:23:32;;;;;;;7.95;2.33;;;3.70;99.90;;;;;;5024863;28;20807;-68
2022/12/27 06:25:58;;;;;;;7.47;2.00;;;3.70;99.90;;;;;;5027007;28;20048;-69
2022/12/27 06:28:23;;;;;;;9.40;2.80;;;4.10;99.90;;;;;;5025076;28;20387;-68
2022/12/27 06:30:49;;;;;;;12.07;3.30;;;3.80;99.90;;;;;;5006586;28;20046;-67
2022/12/27 06:33:15;;;;;;;10.05;2.83;;;3.80;99.90;;;;;;5006179;28;20046;-68
2022/12/27 06:35:40;;;;;;;10.80;2.72;;;3.70;99.90;;;;;;5007185;28;20042;-68
2022/12/27 06:38:06;;;;;;;11.30;3.08;;;3.80;99.90;;;;;;5006587;28;20121;-68
2022/12/27 06:40:32;;;;;;;5.25;2.20;;;3.80;99.90;;;;;;5006648;28;20549;-68
2022/12/27 06:42:57;;;;;;;12.85;3.00;;;3.80;99.90;;;;;;4989063;28;20072;-68
2022/12/27 06:45:23;;;;;;;10.40;3.22;;;3.80;99.90;;;;;;5008005;28;20034;-68
2022/12/27 06:47:49;;;;;;;14.48;3.03;;;3.80;99.90;;;;;;5026159;28;20041;-68
2022/12/27 06:50:14;;;;;;;7.78;2.95;;;3.80;99.90;;;;;;5024904;28;20052;-69
2022/12/27 06:52:40;;;;;;;11.00;3.42;;;3.70;99.90;;;;;;4989164;28;20120;-68
2022/12/27 06:55:06;;;;;;;9.65;2.83;;;3.90;99.90;;;;;;5010137;28;20049;-68
2022/12/27 06:57:32;;;;;;;12.60;3.13;;;3.70;99.90;;;;;;5008954;28;20448;-68
2022/12/27 06:59:57;;;;;;;14.13;3.40;;;3.60;99.90;;;;;;5009963;28;20115;-68
2022/12/27 07:02:23;;;;;;;7.15;2.85;;;3.60;99.90;;;;;;5010683;28;20098;-68
2022/12/27 07:04:49;;;;;;;7.93;3.25;;;3.60;99.90;;;;;;5017760;28;20530;-68
2022/12/27 07:07:14;;;;;;;8.07;2.65;;;3.60;99.90;;;;;;5010768;28;20057;-68
2022/12/27 07:09:40;;;;;;;4.97;2.40;;;3.60;99.90;;;;;;5009875;28;20048;-68
2022/12/27 07:12:06;;;;;;;9.93;3.47;;;3.50;99.90;;;;;;5009352;28;20063;-68
2022/12/27 07:14:31;;;;;;;8.00;1.85;;;3.50;99.90;;;;;;4992141;28;20038;-68
2022/12/27 07:16:57;;;;;;;11.82;2.90;;;3.50;99.90;;;;;;5018747;28;20098;-68
2022/12/27 07:19:23;;;;;;;10.32;3.15;;;3.50;99.90;;;;;;5021604;28;20378;-68
2022/12/27 07:21:48;;;;;;;12.77;3.28;;;3.50;99.90;;;;;;5009295;28;20050;-68
2022/12/27 07:24:14;;;;;;;11.52;3.08;;;4.10;99.90;;;;;;5010001;28;20049;-68
2022/12/27 07:26:40;;;;;;;14.45;3.50;;;3.50;99.90;;;;;;5010618;28;20049;-68
2022/12/27 07:29:05;;;;;;;14.23;4.97;;;3.50;99.90;;;;;;5009885;28;20050;-68
2022/12/27 07:31:32;;;;;;;7.43;3.10;;;3.40;99.90;;;;;;5008092;28;20061;-68
2022/12/27 07:33:59;;;;;;;;;;;3.40;99.90;;;;;;5010421;28;20114;-68
2022/12/27 07:36:28;;;;;;;10.57;3.33;;;3.50;99.90;;;;;;5010214;28;20366;-68
2022/12/27 07:38:54;;;;;;;13.15;3.28;;;3.40;99.90;;;;;;5009967;28;20053;-68
2022/12/27 07:41:20;;;;;;;17.70;3.47;;;3.30;99.90;;;;;;5028836;28;20045;-70
2022/12/27 07:43:46;;;;;;;9.88;2.88;;;3.30;99.90;;;;;;5029163;28;20635;-68
2022/12/27 07:46:17;;;;;;;8.90;3.30;;;3.30;99.90;;;;;;5001667;28;20033;-68
2022/12/27 07:48:44;;;;;;;9.82;3.50;;;3.30;99.90;;;;;;5024436;28;20057;-68
2022/12/27 07:51:10;;;;;;;12.88;2.53;;;3.70;99.90;;;;;;5014016;28;20158;-68
2022/12/27 07:53:36;;;;;;;8.48;2.67;;;3.30;99.90;;;;;;5023695;28;20085;-68
2022/12/27 07:56:09;;;;;;;;;;;3.30;99.90;;;;;;5038768;27;20091;-67
2022/12/27 07:58:36;;;;;;;13.75;2.65;;;3.30;99.90;;;;;;5132398;27;19916;-68
2022/12/27 08:01:03;;;;;;;9.60;2.45;;;3.30;99.90;;;;;;5132843;27;20488;-68
2022/12/27 08:03:30;;;;;;;5.25;2.15;;;3.40;99.90;;;;;;5131693;27;20055;-70
2022/12/27 08:05:56;;;;;;;10.45;2.78;;;3.40;99.90;;;;;;5132746;27;20122;-70
2022/12/27 08:08:25;;;;;;;7.18;2.28;;;3.40;99.90;;;;;;5079598;27;20170;-71
2022/12/27 08:10:51;;;;;;;11.13;2.42;;;3.40;99.90;;;;;;5020177;28;20122;-69
2022/12/27 08:13:17;;;;;;;9.20;2.90;;;3.40;99.90;;;;;;5028478;28;20493;-69
2022/12/27 08:15:43;;;;;;;8.00;2.53;;;3.60;99.90;;;;;;5027917;28;20671;-68
2022/12/27 08:18:09;;;;;;;9.90;2.38;;;4.10;99.90;;;;;;5027977;28;20056;-70
2022/12/27 08:20:35;;;;;;;9.07;2.70;;;3.40;99.90;;;;;;5028394;28;20049;-68
2022/12/27 08:23:01;;;;;;;10.27;2.70;;;3.40;99.90;;;;;;5028035;28;20053;-69
2022/12/27 08:25:27;;;;;;;9.88;3.13;;;3.40;99.90;;;;;;5010861;28;20049;-69
2022/12/27 08:28:05;;;;;;;10.88;2.65;;;3.40;99.90;;;;;;5024053;28;20469;-69
2022/12/27 08:30:31;;;;;;;16.33;3.03;;;3.40;99.90;;;;;;5026950;28;20041;-69
2022/12/27 08:32:57;;;;;;;17.42;2.95;;;3.50;99.90;;;;;;5027921;28;20053;-69
2022/12/27 08:35:22;;;;;;;7.35;3.03;;;3.40;99.90;;;;;;5028549;28;20542;-69
2022/12/27 08:37:48;;;;;;;14.75;2.88;;;3.40;99.90;;;;;;5027292;28;20045;-69
2022/12/27 08:40:14;;;;;;;17.58;3.22;;;3.50;99.90;;;;;;5021128;28;20503;-69
2022/12/27 08:42:40;;;;;;;6.05;2.53;;;3.50;99.90;;;;;;5015984;28;20048;-68
2022/12/27 08:45:06;;;;;;;10.95;2.80;;;3.50;99.90;;;;;;5008395;28;20083;-69
2022/12/27 08:47:31;;;;;;;8.93;2.72;;;3.50;99.90;;;;;;5007729;28;20045;-70
2022/12/27 08:49:57;;;;;;;14.05;2.80;;;3.60;99.90;;;;;;5008760;28;20042;-69
2022/12/27 08:52:23;;;;;;;19.02;3.88;;;3.50;99.90;;;;;;5010943;28;20532;-68
2022/12/27 08:54:48;;;;;;;12.15;3.20;;;3.50;99.90;;;;;;5016741;28;20038;-69
2022/12/27 08:57:14;;;;;;;9.80;2.33;;;4.20;99.90;;;;;;4993349;28;20085;-69
2022/12/27 08:59:40;;;;;;;23.70;3.95;;;3.60;99.90;;;;;;5027818;28;20136;-69
2022/12/27 09:02:05;;;;;;;12.38;3.38;;;3.70;99.90;;;;;;5026460;28;20050;-67
2022/12/27 09:04:31;;;;;;;16.55;3.78;;;3.70;99.90;;;;;;5032752;28;20049;-68
2022/12/27 09:06:57;;;;;;;8.88;2.78;;;3.70;99.90;;;;;;5050529;28;20041;-68
2022/12/27 09:09:22;;;;;;;11.13;2.97;;;3.70;99.90;;;;;;5043511;28;20042;-69
2022/12/27 09:11:48;;;;;;;14.85;3.28;;;3.70;99.90;;;;;;5021437;28;20561;-68
2022/12/27 09:14:14;;;;;;;9.43;2.90;;;3.70;99.90;;;;;;5017198;28;20065;-70
2022/12/27 09:16:39;;;;;;;14.32;3.95;;;3.70;99.90;;;;;;5012168;28;20045;-70
2022/12/27 09:19:05;;;;;;;16.10;2.65;;;3.80;99.90;;;;;;5014929;28;20053;-68
2022/12/27 09:21:32;;;;;;;7.78;3.28;;;3.80;99.90;;;;;;5026677;28;20745;-71
2022/12/27 09:23:59;;;;;;;6.90;2.80;;;3.80;99.90;;;;;;5062427;28;20474;-71
2022/12/27 09:26:29;;;;;;;9.90;3.15;;;3.80;99.90;;;;;;5027273;28;20041;-70
2022/12/27 09:28:55;;;;;;;10.65;3.58;;;3.80;99.90;;;;;;5028168;28;20067;-70
2022/12/27 09:31:22;;;;;;;10.43;3.60;;;3.80;99.90;;;;;;5021174;28;20046;-70
2022/12/27 09:33:48;;;;;;;24.67;3.97;;;3.90;99.90;;;;;;5018328;28;20045;-71
2022/12/27 09:36:15;;;;;;;;;;;3.90;99.90;;;;;;5027550;28;20420;-70
2022/12/27 09:38:41;;;;;;;11.98;3.45;;;3.40;99.90;;;;;;5022907;28;20270;-70
2022/12/27 09:41:20;;;;;;;11.50;3.67;;;4.00;99.90;;;;;;5024201;28;20490;-71
2022/12/27 09:43:58;;;;;;;10.20;3.33;;;4.10;99.90;;;;;;5020526;28;20049;-70
2022/12/27 09:46:30;;;;;;;13.65;3.10;;;4.20;99.90;;;;;;5006860;28;20429;-70
2022/12/27 09:48:56;;;;;;;13.52;4.72;;;4.30;99.90;;;;;;5007264;28;20038;-71
2022/12/27 09:51:31;;;;;;;11.82;3.33;;;4.30;99.90;;;;;;5007320;28;20126;-71
2022/12/27 09:54:17;;;;;;;12.70;3.47;;;4.40;99.90;;;;;;5007579;28;20057;-70
2022/12/27 09:56:43;;;;;;;7.57;3.67;;;4.40;99.90;;;;;;4989422;28;20653;-70
2022/12/27 09:59:27;;;;;;;18.48;3.72;;;4.50;99.90;;;;;;5007978;28;20049;-70
2022/12/27 10:01:53;;;;;;;16.65;3.75;;;4.50;99.90;;;;;;5009322;28;20505;-71
2022/12/27 10:04:19;;;;;;;12.70;3.10;;;4.60;99.90;;;;;;5009806;28;20049;-70
2022/12/27 10:06:48;;;;;;;10.70;2.67;;;4.60;99.90;;;;;;5022278;28;20446;-71
2022/12/27 10:09:47;;;;;;;16.60;4.20;;;4.70;99.90;;;;;;4999792;28;20413;-70
2022/12/27 10:12:25;;;;;;;9.27;3.17;;;4.60;99.90;;;;;;5026795;28;20072;-70
2022/12/27 10:15:15;;;;;;;11.30;3.22;;;4.50;99.90;;;;;;5026011;28;20495;-70
2022/12/27 10:17:48;;;;;;;10.45;3.60;;;4.50;99.90;;;;;;5026058;28;20102;-71
2022/12/27 10:20:39;;;;;;;9.55;2.92;;;4.50;99.90;;;;;;5027420;28;20087;-71
2022/12/27 10:23:10;;;;;;;10.02;3.33;;;4.60;99.90;;;;;;5025960;28;20129;-70
2022/12/27 10:25:38;;;;;;;15.43;3.53;;;4.80;99.90;;;;;;5008624;28;20041;-72
2022/12/27 10:28:24;;;;;;;5.93;2.35;;;4.90;99.90;;;;;;5009539;28;20122;-71
2022/12/27 10:30:51;;;;;;;11.98;3.15;;;5.10;99.90;;;;;;5010576;28;20038;-71
2022/12/27 10:33:34;;;;;;;11.55;3.03;;;5.30;99.90;;;;;;5019646;28;20107;-71
2022/12/27 10:36:08;;;;;;;7.78;2.58;;;5.50;99.90;;;;;;5009802;28;20045;-71
2022/12/27 10:38:34;;;;;;;9.00;2.67;;;5.50;99.90;;;;;;5013446;28;20133;-71
2022/12/27 10:41:21;;;;;;;;;;;5.60;99.90;;;;;;5030337;28;20050;-71
2022/12/27 10:43:50;;;;;;;8.15;3.00;;;5.70;99.90;;;;;;5029797;28;19979;-71
2022/12/27 10:46:20;;;;;;;15.10;3.17;;;5.80;99.90;;;;;;5027579;28;20049;-71
2022/12/27 10:49:03;;;;;;;8.15;2.45;;;5.80;99.90;;;;;;5018284;28;20050;-71
2022/12/27 10:51:39;;;;;;;9.60;2.88;;;5.80;99.90;;;;;;5009690;28;20146;-74
2022/12/27 10:54:17;;;;;;;6.53;2.53;;;6.00;99.90;;;;;;5022749;28;20049;-70
2022/12/27 10:56:43;;;;;;;9.25;3.15;;;6.40;99.90;;;;;;5029095;28;20106;-72
2022/12/27 10:59:18;;;;;;;12.43;2.88;;;6.90;99.90;;;;;;5029283;28;20124;-72
2022/12/27 11:01:46;;;;;;;7.10;2.60;;;7.30;99.90;;;;;;5024708;28;20050;-75
2022/12/27 11:04:14;;;;;;;10.82;2.75;;;7.70;99.90;;;;;;5028668;28;20040;-71
2022/12/27 11:06:43;;;;;;;9.55;2.75;;;8.10;99.90;;;;;;5024580;28;20300;-73
2022/12/27 11:09:37;;;;;;;5.65;2.28;;;8.30;99.90;;;;;;5005573;28;20081;-71
2022/12/27 11:12:20;;;;;;;8.98;2.22;;;8.30;99.90;;;;;;5009045;28;20038;-71
2022/12/27 11:15:21;;;;;;;8.13;2.42;;;8.10;99.90;;;;;;5018371;28;20043;-71
2022/12/27 11:17:52;;;;;;;10.32;2.42;;;8.10;99.90;;;;;;5048695;28;20052;-71
2022/12/27 11:20:22;;;;;;;4.63;1.80;;;8.20;99.90;;;;;;5033391;28;20054;-69
2022/12/27 11:22:52;;;;;;;5.65;1.90;;;8.40;99.90;;;;;;5028704;28;20052;-69
2022/12/27 11:25:19;;;;;;;20.40;2.25;;;8.70;99.90;;;;;;5029915;28;20034;-69
2022/12/27 11:27:48;;;;;;;6.28;1.95;;;9.20;99.90;;;;;;5021442;28;20050;-71
2022/12/27 11:30:27;;;;;;;9.48;1.77;;;9.60;99.90;;;;;;5009679;28;20052;-70
2022/12/27 11:32:53;;;;;;;5.63;1.88;;;10.00;99.90;;;;;;5008709;28;20038;-69
2022/12/27 11:35:24;;;;;;;10.43;1.95;;;10.30;99.90;;;;;;5009740;28;20038;-70
2022/12/27 11:37:51;;;;;;;9.25;1.90;;;10.60;99.90;;;;;;5008582;28;20124;-69
2022/12/27 11:40:25;;;;;;;10.65;2.47;;;10.60;99.90;;;;;;5009360;28;20050;-70
2022/12/27 11:43:00;;;;;;;9.75;2.05;;;10.20;99.90;;;;;;5008783;28;20046;-69
2022/12/27 11:45:40;;;;;;;4.82;1.73;;;10.10;99.90;;;;;;5009398;28;20403;-70
2022/12/27 11:48:37;;;;;;;10.10;2.83;;;10.30;99.90;;;;;;5011468;28;20056;-70
2022/12/27 11:51:41;;;;;;;4.43;1.70;;;10.20;99.90;;;;;;5019833;28;20045;-70
2022/12/27 11:55:02;;;;;;;8.35;2.40;;;9.60;99.90;;;;;;5049036;28;20067;-69
2022/12/27 11:57:40;;;;;;;5.10;1.80;;;9.00;99.90;;;;;;4997099;28;20178;-69
2022/12/27 12:00:25;;;;;;;6.30;2.00;;;8.60;99.90;;;;;;5028677;28;20053;-69
2022/12/27 12:03:12;;;;;;;6.63;2.33;;;8.50;99.90;;;;;;5016925;28;20037;-69
2022/12/27 12:06:04;;;;;;;7.18;2.00;;;8.60;99.90;;;;;;5023160;28;20042;-69
2022/12/27 12:09:05;;;;;;;8.52;1.90;;;8.90;99.90;;;;;;5028388;28;20053;-69
2022/12/27 12:11:45;;;;;;;14.95;2.55;;;9.20;99.90;;;;;;5021363;28;20467;-69
2022/12/27 12:14:30;;;;;;;12.95;2.15;;;9.30;99.90;;;;;;5022999;28;20133;-69
2022/12/27 12:17:22;;;;;;;8.85;2.20;;;9.30;99.90;;;;;;5018997;28;20041;-70
2022/12/27 12:19:51;;;;;;;8.75;2.00;;;9.00;99.90;;;;;;5018956;28;20049;-70
2022/12/27 12:22:38;;;;;;;3.90;1.92;;;8.60;99.90;;;;;;5027798;28;20230;-69
2022/12/27 12:25:34;;;;;;;13.02;3.65;;;8.20;99.90;;;;;;5027651;28;20037;-69
2022/12/27 12:28:11;;;;;;;11.55;2.65;;;7.90;99.90;;;;;;5027406;28;20045;-69
2022/12/27 12:30:54;;;;;;;5.55;2.58;;;7.70;99.90;;;;;;5015576;28;20095;-70
2022/12/27 12:33:32;;;;;;;10.68;3.42;;;7.70;99.90;;;;;;5027816;28;20080;-69
2022/12/27 12:36:17;;;;;;;10.82;2.90;;;7.60;99.90;;;;;;5017497;28;20045;-69
2022/12/27 12:38:54;;;;;;;8.95;2.50;;;7.50;99.90;;;;;;5007521;28;20447;-68
2022/12/27 12:41:34;;;;;;;4.53;1.95;;;7.50;99.90;;;;;;5028072;28;20045;-68
2022/12/27 12:44:42;;;;;;;7.15;2.78;;;7.40;99.90;;;;;;5027723;28;20045;-68
2022/12/27 12:47:45;;;;;;;10.02;3.10;;;7.30;99.90;;;;;;5044851;27;20368;-69
2022/12/27 12:50:33;;;;;;;8.73;3.25;;;7.20;99.90;;;;;;5027759;28;20049;-69
2022/12/27 12:53:18;;;;;;;9.80;3.30;;;7.10;99.90;;;;;;5016352;28;20169;-69
2022/12/27 12:56:04;;;;;;;14.32;3.33;;;7.00;99.90;;;;;;5016249;28;20077;-69
2022/12/27 12:58:55;;;;;;;9.25;3.88;;;7.00;99.90;;;;;;5006726;28;20077;-69
2022/12/27 13:01:33;;;;;;;9.88;3.00;;;7.10;99.90;;;;;;5011475;28;20691;-69
2022/12/27 13:04:17;;;;;;;17.63;4.45;;;7.20;99.90;;;;;;4995230;28;20521;-69
2022/12/27 13:07:04;;;;;;;12.15;3.17;;;7.40;99.90;;;;;;5006265;27;20172;-69
2022/12/27 13:09:48;;;;;;;8.48;3.63;;;7.60;99.90;;;;;;5037604;27;20060;-69
2022/12/27 13:12:41;;;;;;;14.20;3.95;;;7.90;99.90;;;;;;5022844;28;20041;-69
2022/12/27 13:15:48;;;;;;;10.55;4.30;;;7.90;99.90;;;;;;5015810;27;20046;-69
2022/12/27 13:18:25;;;;;;;13.60;4.77;;;7.70;99.90;;;;;;5014830;28;20053;-69
2022/12/27 13:20:56;;;;;;;11.68;3.80;;;7.50;99.90;;;;;;5027364;28;20063;-68
2022/12/27 13:23:34;;;;;;;16.60;4.80;;;7.40;99.90;;;;;;5025661;28;20042;-70
2022/12/27 13:26:05;;;;;;;8.70;4.35;;;7.40;99.90;;;;;;5016287;28;20045;-69
2022/12/27 13:29:07;;;;;;;13.18;4.35;;;7.60;99.90;;;;;;5007256;28;20050;-69
2022/12/27 13:31:49;;;;;;;11.95;4.57;;;7.90;99.90;;;;;;4991988;28;20479;-68
2022/12/27 13:34:21;;;;;;;12.85;4.95;;;8.10;99.90;;;;;;5009131;28;20044;-68
2022/12/27 13:37:13;;;;;;;10.85;4.70;;;7.90;99.90;;;;;;5006732;28;20050;-68
2022/12/27 13:40:16;;;;;;;11.10;4.18;;;7.60;99.90;;;;;;5006029;28;20049;-68
2022/12/27 13:43:04;;;;;;;16.13;5.80;;;7.30;99.90;;;;;;5011981;28;20107;-68
2022/12/27 13:45:54;;;;;;;14.98;5.05;;;7.20;99.90;;;;;;5005870;28;20041;-68
2022/12/27 13:48:47;;;;;;;10.48;5.75;;;7.20;99.90;;;;;;5006923;28;20631;-68
2022/12/27 13:51:43;;;;;;;16.45;6.32;;;7.20;99.90;;;;;;5021920;28;20037;-68
2022/12/27 13:54:45;;;;;;;12.93;6.03;;;7.20;99.90;;;;;;5017953;28;20053;-68
2022/12/27 13:57:35;;;;;;;15.88;5.90;;;7.10;99.90;;;;;;5026304;28;20305;-68
2022/12/27 14:00:07;;;;;;;14.45;5.90;;;7.20;99.90;;;;;;5007612;28;20050;-70
2022/12/27 14:02:36;;;;;;;11.75;5.63;;;7.40;99.90;;;;;;5008022;28;20061;-68
2022/12/27 14:05:20;;;;;;;14.80;6.05;;;7.40;99.90;;;;;;5005846;28;20034;-70
2022/12/27 14:08:18;;;;;;;19.63;6.03;;;7.20;99.90;;;;;;5008515;28;20436;-68
2022/12/27 14:10:49;;;;;;;14.02;6.63;;;7.00;99.90;;;;;;5007897;28;20049;-68
2022/12/27 14:13:20;;;;;;;16.85;6.32;;;6.80;99.90;;;;;;5012234;28;20052;-68
2022/12/27 14:16:07;;;;;;;16.33;6.38;;;6.70;99.90;;;;;;5026144;28;20041;-68
2022/12/27 14:18:57;;;;;;;14.43;6.45;;;6.60;99.90;;;;;;5023622;28;20046;-69
2022/12/27 14:21:32;;;;;;;21.08;7.10;;;6.50;99.90;;;;;;5013659;28;20045;-69
2022/12/27 14:24:16;;;;;;;15.02;6.40;;;6.50;99.90;;;;;;5015553;28;20129;-68
2022/12/27 14:27:21;;;;;;;13.52;6.75;;;6.40;99.90;;;;;;5024494;28;20056;-68
2022/12/27 14:30:04;;;;;;;16.15;7.13;;;6.30;99.90;;;;;;5022612;28;20125;-68
2022/12/27 14:32:57;;;;;;;15.55;6.35;;;6.20;99.90;;;;;;5025533;28;20490;-68
2022/12/27 14:35:49;;;;;;;14.85;6.70;;;6.20;99.90;;;;;;5021151;28;20116;-68
2022/12/27 14:38:40;;;;;;;16.95;6.45;;;6.20;99.90;;;;;;5025394;28;20038;-68
2022/12/27 14:41:26;;;;;;;14.70;5.97;;;6.10;99.90;;;;;;5018052;28;20050;-70
2022/12/27 14:44:17;;;;;;;19.63;6.53;;;6.10;99.90;;;;;;5026313;28;20073;-68
2022/12/27 14:47:25;;;;;;;15.80;6.03;;;6.10;99.90;;;;;;5005581;28;20048;-68
2022/12/27 14:50:33;;;;;;;17.75;6.72;;;6.10;99.90;;;;;;5013620;28;20029;-68
2022/12/27 14:53:18;;;;;;;14.90;6.25;;;6.00;99.90;;;;;;5025954;28;20045;-70
2022/12/27 14:56:11;;;;;;;13.00;6.35;;;6.00;99.90;;;;;;5022635;28;20109;-68
2022/12/27 14:59:12;;;;;;;22.45;8.02;;;5.90;99.90;;;;;;5020124;28;20058;-68